Terminal Aerodrome Forecast
Issued by NWS Binghamton, NY

Home | Current Version | Previous Version | Text Only | Print | Product List | Glossary On
Versions: 1 2 3 4 5 6 7 8 9 10 11 12 13 14 15 16
000
FTUS41 KBGM 200800 AAA
TAFAVP
TAF AMD
KAVP 200847Z 2009/2106 VRB03KT P6SM BKN060 BKN250
     FM201500 23004KT P6SM BKN050
     FM210100 VRB03KT P6SM BKN050 OVC100
      TEMPO 2102/2106 5SM -SHRA BR=

USA.gov is the U.S. government's official web portal to all federal, state and local government web resources and services.